createdAt,value
2022-12-02T00:00:04.000Z,96668
2022-12-02T00:05:04.000Z,96652
2022-12-02T00:10:07.000Z,96648
2022-12-02T00:15:02.000Z,96648
2022-12-02T00:20:03.000Z,96656
2022-12-02T00:25:03.000Z,96648
2022-12-02T00:30:04.000Z,96647
2022-12-02T00:35:07.000Z,96642
2022-12-02T00:40:03.000Z,96639
2022-12-02T00:45:04.000Z,96647
2022-12-02T00:50:03.000Z,96646
2022-12-02T00:55:04.000Z,96636
2022-12-02T01:00:06.000Z,96640
2022-12-02T01:05:03.000Z,96635
2022-12-02T01:10:04.000Z,96634
2022-12-02T01:15:06.000Z,96630
2022-12-02T01:20:03.000Z,96629
2022-12-02T01:25:04.000Z,96639
2022-12-02T01:30:05.000Z,96641
2022-12-02T01:35:07.000Z,96635
2022-12-02T01:40:02.000Z,96637
2022-12-02T01:45:06.000Z,96637
2022-12-02T01:50:01.000Z,96627
2022-12-02T01:55:07.000Z,96641
2022-12-02T02:00:03.000Z,96634
2022-12-02T02:05:04.000Z,96640
2022-12-02T02:10:06.000Z,96637
2022-12-02T02:15:02.000Z,96642
2022-12-02T02:20:04.000Z,96643
2022-12-02T02:25:01.000Z,96638
2022-12-02T02:30:03.000Z,96634
2022-12-02T02:35:03.000Z,96635
2022-12-02T02:40:06.000Z,96627
2022-12-02T02:45:04.000Z,96623
2022-12-02T02:50:06.000Z,96612
2022-12-02T02:55:02.000Z,96607
2022-12-02T03:00:05.000Z,96605
2022-12-02T03:05:06.000Z,96594
2022-12-02T03:10:03.000Z,96600
2022-12-02T03:15:04.000Z,96595
2022-12-02T03:20:01.000Z,96594
2022-12-02T03:25:07.000Z,96602
2022-12-02T03:30:03.000Z,96589
2022-12-02T03:35:06.000Z,96602
2022-12-02T03:40:03.000Z,96588
2022-12-02T03:45:04.000Z,96592
2022-12-02T03:50:04.000Z,96591
2022-12-02T03:55:06.000Z,96590
2022-12-02T04:00:03.000Z,96585
2022-12-02T04:05:06.000Z,96573
2022-12-02T04:10:02.000Z,96584
2022-12-02T04:15:04.000Z,96576
2022-12-02T04:20:06.000Z,96580
2022-12-02T04:25:08.000Z,96575
2022-12-02T04:30:04.000Z,96563
2022-12-02T04:35:06.000Z,96565
2022-12-02T04:40:02.000Z,96567
2022-12-02T04:45:06.000Z,96563
2022-12-02T04:50:02.000Z,96567
2022-12-02T04:55:04.000Z,96558
2022-12-02T05:00:07.000Z,96561
2022-12-02T05:05:03.000Z,96559
2022-12-02T05:10:05.000Z,96552
2022-12-02T05:15:07.000Z,96548
2022-12-02T05:20:04.000Z,96554
2022-12-02T05:25:01.000Z,96549
2022-12-02T05:30:03.000Z,96552
2022-12-02T05:35:04.000Z,96557
2022-12-02T05:40:06.000Z,96552
2022-12-02T05:45:01.000Z,96563
2022-12-02T05:50:04.000Z,96554
2022-12-02T05:55:06.000Z,96544
2022-12-02T06:00:02.000Z,96559
2022-12-02T06:05:04.000Z,96564
2022-12-02T06:10:05.000Z,96562
2022-12-02T06:15:03.000Z,96560
2022-12-02T06:20:02.000Z,96562
2022-12-02T06:25:04.000Z,96559
2022-12-02T06:30:06.000Z,96552
2022-12-02T06:35:05.000Z,96548
2022-12-02T06:40:06.000Z,96552
2022-12-02T06:45:01.000Z,96551
2022-12-02T06:50:04.000Z,96552
2022-12-02T06:55:06.000Z,96549
2022-12-02T07:00:03.000Z,96552
2022-12-02T07:05:06.000Z,96548
2022-12-02T07:10:01.000Z,96553
2022-12-02T07:15:04.000Z,96557
2022-12-02T07:20:01.000Z,96551
2022-12-02T07:25:02.000Z,96552
2022-12-02T07:30:04.000Z,96551
2022-12-02T07:35:06.000Z,96551
2022-12-02T07:40:03.000Z,96546
2022-12-02T07:45:04.000Z,96555
2022-12-02T07:50:04.000Z,96549
2022-12-02T07:55:07.000Z,96548
2022-12-02T08:00:03.000Z,96560
2022-12-02T08:05:04.000Z,96547
2022-12-02T08:10:04.000Z,96557
2022-12-02T08:15:06.000Z,96550
2022-12-02T08:20:02.000Z,96557
2022-12-02T08:25:04.000Z,96544
2022-12-02T08:30:05.000Z,96545
2022-12-02T08:35:07.000Z,96552
2022-12-02T08:40:03.000Z,96563
2022-12-02T08:45:04.000Z,96554
2022-12-02T08:50:04.000Z,96557
2022-12-02T08:55:04.000Z,96556
2022-12-02T09:00:05.000Z,96545
2022-12-02T09:05:02.000Z,96547
2022-12-02T09:10:04.000Z,96544
2022-12-02T09:15:05.000Z,96540
2022-12-02T09:20:02.000Z,96536
2022-12-02T09:25:06.000Z,96543
2022-12-02T09:30:03.000Z,96543
2022-12-02T09:35:06.000Z,96534
2022-12-02T09:40:03.000Z,96536
2022-12-02T09:45:04.000Z,96539
2022-12-02T09:50:05.000Z,96536
2022-12-02T09:55:02.000Z,96524
2022-12-02T10:00:04.000Z,96534
2022-12-02T10:05:05.000Z,96521
2022-12-02T10:10:02.000Z,96530
2022-12-02T10:15:04.000Z,96527
2022-12-02T10:20:07.000Z,96518
2022-12-02T10:25:08.000Z,96513
2022-12-02T10:30:04.000Z,96513
2022-12-02T10:35:05.000Z,96506
2022-12-02T10:40:02.000Z,96490
2022-12-02T10:45:04.000Z,96490
2022-12-02T10:50:07.000Z,96489
2022-12-02T10:55:03.000Z,96483
2022-12-02T11:00:04.000Z,96460
2022-12-02T11:05:01.000Z,96423
2022-12-02T11:10:03.000Z,96426
2022-12-02T11:15:04.000Z,96438
2022-12-02T11:20:07.000Z,96440
2022-12-02T11:25:01.000Z,96448
2022-12-02T11:30:04.000Z,96438
2022-12-02T11:35:04.000Z,96436
2022-12-02T11:40:04.000Z,96431
2022-12-02T11:45:07.000Z,96420
2022-12-02T11:50:03.000Z,96416
2022-12-02T11:55:04.000Z,96402
2022-12-02T12:00:06.000Z,96404
2022-12-02T12:05:06.000Z,96401
2022-12-02T12:10:02.000Z,96398
2022-12-02T12:15:04.000Z,96382
2022-12-02T12:20:04.000Z,96380
2022-12-02T12:25:01.000Z,96382
2022-12-02T12:30:03.000Z,96377
2022-12-02T12:35:06.000Z,96379
2022-12-02T12:40:02.000Z,96378
2022-12-02T12:45:04.000Z,96351
2022-12-02T12:50:01.000Z,96349
2022-12-02T12:55:03.000Z,96343
2022-12-02T13:00:06.000Z,96331
2022-12-02T13:05:03.000Z,96331
2022-12-02T13:10:04.000Z,96316
2022-12-02T13:15:05.000Z,96313
2022-12-02T13:20:01.000Z,96313
2022-12-02T13:25:02.000Z,96316
2022-12-02T13:30:04.000Z,96303
2022-12-02T13:35:04.000Z,96311
2022-12-02T13:40:06.000Z,96316
2022-12-02T13:45:03.000Z,96308
2022-12-02T13:50:04.000Z,96311
2022-12-02T13:55:04.000Z,96313
2022-12-02T14:00:04.000Z,96301
2022-12-02T14:05:04.000Z,96303
2022-12-02T14:10:07.000Z,96317
2022-12-02T14:15:02.000Z,96320
2022-12-02T14:20:06.000Z,96315
2022-12-02T14:25:01.000Z,96320
2022-12-02T14:30:04.000Z,96317
2022-12-02T14:35:06.000Z,96308
2022-12-02T14:40:00.000Z,96316
2022-12-02T14:45:02.000Z,96308
2022-12-02T14:50:06.000Z,96305
2022-12-02T14:55:02.000Z,96313
2022-12-02T15:00:05.000Z,96309
2022-12-02T15:05:02.000Z,96318
2022-12-02T15:10:04.000Z,96314
2022-12-02T15:15:07.000Z,96320
2022-12-02T15:20:03.000Z,96306
2022-12-02T15:25:05.000Z,96311
2022-12-02T15:30:01.000Z,96306
2022-12-02T15:35:04.000Z,96313
2022-12-02T15:40:05.000Z,96318
2022-12-02T15:45:01.000Z,96311
2022-12-02T15:50:04.000Z,96300
2022-12-02T15:55:06.000Z,96291
2022-12-02T16:00:04.000Z,96302
2022-12-02T16:05:01.000Z,96293
2022-12-02T16:10:01.000Z,96292
2022-12-02T16:15:03.000Z,96295
2022-12-02T16:20:04.000Z,96294
2022-12-02T16:25:07.000Z,96304
2022-12-02T16:30:03.000Z,96299
2022-12-02T16:35:04.000Z,96306
2022-12-02T16:40:04.000Z,96310
2022-12-02T16:45:05.000Z,96313
2022-12-02T16:50:07.000Z,96318
2022-12-02T16:55:07.000Z,96303
2022-12-02T17:00:03.000Z,96296
2022-12-02T17:05:05.000Z,96284
2022-12-02T17:10:01.000Z,96283
2022-12-02T17:15:04.000Z,96304
2022-12-02T17:20:02.000Z,96298
2022-12-02T17:25:05.000Z,96296
2022-12-02T17:30:01.000Z,96301
2022-12-02T17:35:04.000Z,96295
2022-12-02T17:40:06.000Z,96302
2022-12-02T17:45:07.000Z,96298
2022-12-02T17:50:04.000Z,96302
2022-12-02T17:55:07.000Z,96306
2022-12-02T18:00:01.000Z,96308
2022-12-02T18:05:04.000Z,96303
2022-12-02T18:10:05.000Z,96308
2022-12-02T18:15:07.000Z,96296
2022-12-02T18:20:02.000Z,96297
2022-12-02T18:25:05.000Z,96299
2022-12-02T18:30:04.000Z,96297
2022-12-02T18:35:07.000Z,96290
2022-12-02T18:40:04.000Z,96291
2022-12-02T18:45:05.000Z,96276
2022-12-02T18:50:07.000Z,96277
2022-12-02T18:55:05.000Z,96279
2022-12-02T19:00:01.000Z,96282
2022-12-02T19:05:04.000Z,96282
2022-12-02T19:10:04.000Z,96284
2022-12-02T19:15:05.000Z,96270
2022-12-02T19:20:02.000Z,96270
2022-12-02T19:25:04.000Z,96273
2022-12-02T19:30:05.000Z,96273
2022-12-02T19:35:07.000Z,96269
2022-12-02T19:40:02.000Z,96280
2022-12-02T19:45:04.000Z,96276
2022-12-02T19:50:06.000Z,96280
2022-12-02T19:55:01.000Z,96273
2022-12-02T20:00:03.000Z,96273
2022-12-02T20:05:06.000Z,96268
2022-12-02T20:10:04.000Z,96272
2022-12-02T20:15:05.000Z,96259
2022-12-02T20:20:04.000Z,96257
2022-12-02T20:25:06.000Z,96250
2022-12-02T20:30:06.000Z,96258
2022-12-02T20:35:02.000Z,96261
2022-12-02T20:40:04.000Z,96260
2022-12-02T20:45:06.000Z,96277
2022-12-02T20:50:01.000Z,96277
2022-12-02T20:55:05.000Z,96276
2022-12-02T21:00:07.000Z,96282
2022-12-02T21:05:03.000Z,96274
2022-12-02T21:10:06.000Z,96264
2022-12-02T21:15:01.000Z,96271
2022-12-02T21:20:04.000Z,96278
2022-12-02T21:25:04.000Z,96282
2022-12-02T21:30:02.000Z,96269
2022-12-02T21:35:06.000Z,96274
2022-12-02T21:40:01.000Z,96273
2022-12-02T21:45:04.000Z,96259
2022-12-02T21:50:04.000Z,96272
2022-12-02T21:55:07.000Z,96263
2022-12-02T22:00:03.000Z,96271
2022-12-02T22:05:05.000Z,96272
2022-12-02T22:10:01.000Z,96270
2022-12-02T22:15:03.000Z,96275
2022-12-02T22:20:06.000Z,96282
2022-12-02T22:25:03.000Z,96281
2022-12-02T22:30:03.000Z,96290
2022-12-02T22:35:04.000Z,96286
2022-12-02T22:40:06.000Z,96287
2022-12-02T22:45:02.000Z,96280
2022-12-02T22:50:04.000Z,96282
2022-12-02T22:55:07.000Z,96281
2022-12-02T23:00:06.000Z,96288
2022-12-02T23:05:01.000Z,96290
2022-12-02T23:10:04.000Z,96278
2022-12-02T23:15:06.000Z,96279
2022-12-02T23:20:04.000Z,96282
2022-12-02T23:25:01.000Z,96274
2022-12-02T23:30:02.000Z,96272
2022-12-02T23:35:02.000Z,96275
2022-12-02T23:40:04.000Z,96275
2022-12-02T23:45:06.000Z,96281
2022-12-02T23:50:01.000Z,96270
2022-12-02T23:55:04.000Z,96264
